sensor_id;sensor_type;location;lat;lon;timestamp;pressure;altitude;pressure_sealevel;temperature;humidity
63535;BME280;55128;50.230;18.944;2023-11-21T00:01:03;97600.63;;;8.62;99.27
63535;BME280;55128;50.230;18.944;2023-11-21T00:06:04;97606.59;;;8.66;98.87
63535;BME280;55128;50.230;18.944;2023-11-21T00:11:05;97612.41;;;8.56;99.35
63535;BME280;55128;50.230;18.944;2023-11-21T00:16:06;97614.44;;;8.51;99.62
63535;BME280;55128;50.230;18.944;2023-11-21T00:21:07;97612.75;;;8.50;99.72
63535;BME280;55128;50.230;18.944;2023-11-21T00:26:09;97621.53;;;8.67;99.12
63535;BME280;55128;50.230;18.944;2023-11-21T00:31:09;97615.53;;;8.47;99.91
63535;BME280;55128;50.230;18.944;2023-11-21T00:36:10;97620.53;;;8.36;100.00
63535;BME280;55128;50.230;18.944;2023-11-21T00:41:10;97629.69;;;8.46;100.00
63535;BME280;55128;50.230;18.944;2023-11-21T00:46:10;97623.56;;;8.46;100.00
63535;BME280;55128;50.230;18.944;2023-11-21T00:51:11;97631.59;;;8.60;100.00
63535;BME280;55128;50.230;18.944;2023-11-21T00:56:11;97625.00;;;8.51;100.00
63535;BME280;55128;50.230;18.944;2023-11-21T01:01:12;97624.69;;;8.40;100.00
63535;BME280;55128;50.230;18.944;2023-11-21T01:06:12;97623.63;;;8.44;100.00
63535;BME280;55128;50.230;18.944;2023-11-21T01:11:13;97623.56;;;8.46;99.88
63535;BME280;55128;50.230;18.944;2023-11-21T01:16:14;97619.56;;;8.37;99.65
63535;BME280;55128;50.230;18.944;2023-11-21T01:21:14;97618.03;;;8.33;97.70
63535;BME280;55128;50.230;18.944;2023-11-21T01:26:14;97623.66;;;8.27;98.10
63535;BME280;55128;50.230;18.944;2023-11-21T01:31:15;97628.69;;;8.31;97.88
63535;BME280;55128;50.230;18.944;2023-11-21T01:36:15;97626.28;;;8.27;97.85
63535;BME280;55128;50.230;18.944;2023-11-21T01:41:17;97637.00;;;8.24;98.56
63535;BME280;55128;50.230;18.944;2023-11-21T01:46:17;97642.56;;;8.19;98.89
63535;BME280;55128;50.230;18.944;2023-11-21T01:51:19;97633.44;;;8.25;98.65
63535;BME280;55128;50.230;18.944;2023-11-21T01:56:20;97639.22;;;8.15;98.50
63535;BME280;55128;50.230;18.944;2023-11-21T02:01:21;97650.56;;;8.17;98.81
63535;BME280;55128;50.230;18.944;2023-11-21T02:06:21;97640.31;;;8.11;98.59
63535;BME280;55128;50.230;18.944;2023-11-21T02:11:22;97639.22;;;8.15;98.11
63535;BME280;55128;50.230;18.944;2023-11-21T02:16:22;97648.25;;;8.11;98.20
63535;BME280;55128;50.230;18.944;2023-11-21T02:21:24;97651.03;;;8.08;97.83
63535;BME280;55128;50.230;18.944;2023-11-21T02:26:25;97639.78;;;8.05;98.13
63535;BME280;55128;50.230;18.944;2023-11-21T02:31:26;97638.22;;;8.01;98.57
63535;BME280;55128;50.230;18.944;2023-11-21T02:36:27;97644.69;;;7.95;98.79
63535;BME280;55128;50.230;18.944;2023-11-21T02:41:28;97644.59;;;7.96;98.85
63535;BME280;55128;50.230;18.944;2023-11-21T02:46:29;97643.00;;;7.94;98.73
63535;BME280;55128;50.230;18.944;2023-11-21T02:51:30;97643.00;;;7.94;98.25
63535;BME280;55128;50.230;18.944;2023-11-21T02:56:30;97650.91;;;7.94;98.51
63535;BME280;55128;50.230;18.944;2023-11-21T03:01:31;97648.88;;;7.82;98.34
63535;BME280;55128;50.230;18.944;2023-11-21T03:06:31;97656.50;;;7.88;99.04
63535;BME280;55128;50.230;18.944;2023-11-21T03:11:32;97660.53;;;7.95;98.17
63535;BME280;55128;50.230;18.944;2023-11-21T03:16:32;97664.91;;;7.96;98.24
63535;BME280;55128;50.230;18.944;2023-11-21T03:21:33;97668.53;;;7.93;98.34
63535;BME280;55128;50.230;18.944;2023-11-21T03:26:33;97662.25;;;7.96;98.14
63535;BME280;55128;50.230;18.944;2023-11-21T03:31:34;97670.63;;;8.04;97.52
63535;BME280;55128;50.230;18.944;2023-11-21T03:36:34;97669.25;;;7.97;97.81
63535;BME280;55128;50.230;18.944;2023-11-21T03:41:36;97681.91;;;8.08;97.62
63535;BME280;55128;50.230;18.944;2023-11-21T03:46:37;97674.53;;;7.97;98.23
63535;BME280;55128;50.230;18.944;2023-11-21T03:51:37;97677.78;;;8.02;98.54
63535;BME280;55128;50.230;18.944;2023-11-21T03:56:38;97668.00;;;8.04;97.95
63535;BME280;55128;50.230;18.944;2023-11-21T04:01:38;97679.66;;;8.00;98.64
63535;BME280;55128;50.230;18.944;2023-11-21T04:06:38;97681.66;;;8.12;98.13
63535;BME280;55128;50.230;18.944;2023-11-21T04:11:39;97686.88;;;7.96;97.99
63535;BME280;55128;50.230;18.944;2023-11-21T04:16:40;97687.34;;;8.05;98.73
63535;BME280;55128;50.230;18.944;2023-11-21T04:21:41;97685.88;;;7.99;98.83
63535;BME280;55128;50.230;18.944;2023-11-21T04:26:43;97681.06;;;8.07;98.46
63535;BME280;55128;50.230;18.944;2023-11-21T04:31:44;97682.94;;;8.05;98.18
63535;BME280;55128;50.230;18.944;2023-11-21T04:36:44;97689.75;;;7.92;98.78
63535;BME280;55128;50.230;18.944;2023-11-21T04:41:44;97698.94;;;8.02;99.15
63535;BME280;55128;50.230;18.944;2023-11-21T04:46:45;97687.66;;;7.98;99.26
63535;BME280;55128;50.230;18.944;2023-11-21T04:51:45;97702.03;;;7.93;99.62
63535;BME280;55128;50.230;18.944;2023-11-21T04:56:46;97698.69;;;7.89;100.00
63535;BME280;55128;50.230;18.944;2023-11-21T05:01:46;97696.75;;;8.10;98.82
63535;BME280;55128;50.230;18.944;2023-11-21T05:06:46;97699.78;;;8.03;99.23
63535;BME280;55128;50.230;18.944;2023-11-21T05:11:48;97704.38;;;7.99;99.03
63535;BME280;55128;50.230;18.944;2023-11-21T05:16:48;97704.53;;;7.96;99.51
63535;BME280;55128;50.230;18.944;2023-11-21T05:21:51;97712.38;;;7.97;99.59
63535;BME280;55128;50.230;18.944;2023-11-21T05:26:51;97715.25;;;7.93;100.00
63535;BME280;55128;50.230;18.944;2023-11-21T05:31:51;97718.16;;;7.69;100.00
63535;BME280;55128;50.230;18.944;2023-11-21T05:36:53;97722.09;;;7.97;99.93
63535;BME280;55128;50.230;18.944;2023-11-21T05:41:53;97729.84;;;7.83;100.00
63535;BME280;55128;50.230;18.944;2023-11-21T05:46:54;97731.88;;;7.95;100.00
63535;BME280;55128;50.230;18.944;2023-11-21T05:51:54;97739.66;;;7.98;100.00
63535;BME280;55128;50.230;18.944;2023-11-21T05:56:54;97741.69;;;8.10;99.62
63535;BME280;55128;50.230;18.944;2023-11-21T06:01:55;97750.00;;;8.20;99.10
63535;BME280;55128;50.230;18.944;2023-11-21T06:06:56;97754.19;;;8.07;99.45
63535;BME280;55128;50.230;18.944;2023-11-21T06:11:56;97758.56;;;8.08;99.10
63535;BME280;55128;50.230;18.944;2023-11-21T06:16:56;97758.31;;;8.12;99.03
63535;BME280;55128;50.230;18.944;2023-11-21T06:21:57;97770.22;;;8.04;99.08
63535;BME280;55128;50.230;18.944;2023-11-21T06:26:58;97774.94;;;7.97;99.67
63535;BME280;55128;50.230;18.944;2023-11-21T06:31:58;97775.50;;;8.04;99.61
63535;BME280;55128;50.230;18.944;2023-11-21T06:36:59;97777.53;;;8.16;98.80
63535;BME280;55128;50.230;18.944;2023-11-21T06:41:59;97775.19;;;8.10;98.55
63535;BME280;55128;50.230;18.944;2023-11-21T06:47:00;97778.22;;;8.20;98.46
63535;BME280;55128;50.230;18.944;2023-11-21T06:52:00;97777.66;;;7.95;99.46
63535;BME280;55128;50.230;18.944;2023-11-21T06:57:03;97787.00;;;8.20;98.03
63535;BME280;55128;50.230;18.944;2023-11-21T07:02:03;97796.47;;;8.07;98.83
63535;BME280;55128;50.230;18.944;2023-11-21T07:07:06;97785.69;;;8.11;98.22
63535;BME280;55128;50.230;18.944;2023-11-21T07:12:09;97795.56;;;8.08;98.70
63535;BME280;55128;50.230;18.944;2023-11-21T07:17:11;97796.34;;;8.10;98.53
63535;BME280;55128;50.230;18.944;2023-11-21T07:22:12;97803.69;;;8.03;98.85
63535;BME280;55128;50.230;18.944;2023-11-21T07:27:13;97799.84;;;8.10;98.47
63535;BME280;55128;50.230;18.944;2023-11-21T07:32:14;97804.22;;;8.29;98.17
63535;BME280;55128;50.230;18.944;2023-11-21T07:37:15;97800.63;;;8.12;97.97
63535;BME280;55128;50.230;18.944;2023-11-21T07:42:15;97805.31;;;8.25;97.97
63535;BME280;55128;50.230;18.944;2023-11-21T07:47:16;97814.84;;;8.27;97.65
63535;BME280;55128;50.230;18.944;2023-11-21T07:52:17;97817.13;;;8.35;97.38
63535;BME280;55128;50.230;18.944;2023-11-21T07:57:17;97818.00;;;8.35;97.37
63535;BME280;55128;50.230;18.944;2023-11-21T08:02:18;97814.25;;;8.40;97.47
63535;BME280;55128;50.230;18.944;2023-11-21T08:07:18;97818.78;;;8.37;96.96
63535;BME280;55128;50.230;18.944;2023-11-21T08:12:19;97819.63;;;8.38;97.52
63535;BME280;55128;50.230;18.944;2023-11-21T08:17:20;97824.41;;;8.49;96.26
63535;BME280;55128;50.230;18.944;2023-11-21T08:22:21;97827.81;;;8.68;95.20
63535;BME280;55128;50.230;18.944;2023-11-21T08:27:23;97837.97;;;9.11;94.37
63535;BME280;55128;50.230;18.944;2023-11-21T08:32:23;97838.19;;;9.06;93.52
63535;BME280;55128;50.230;18.944;2023-11-21T08:37:24;97839.09;;;9.23;93.51
63535;BME280;55128;50.230;18.944;2023-11-21T08:42:24;97834.09;;;9.34;92.82
63535;BME280;55128;50.230;18.944;2023-11-21T08:47:25;97847.06;;;9.23;92.90
63535;BME280;55128;50.230;18.944;2023-11-21T08:52:26;97854.63;;;9.13;93.50
63535;BME280;55128;50.230;18.944;2023-11-21T08:57:26;97845.78;;;8.97;93.26
63535;BME280;55128;50.230;18.944;2023-11-21T09:02:27;97855.38;;;8.99;93.10
63535;BME280;55128;50.230;18.944;2023-11-21T09:07:27;97846.13;;;9.06;93.18
63535;BME280;55128;50.230;18.944;2023-11-21T09:12:28;97854.56;;;8.97;92.57
63535;BME280;55128;50.230;18.944;2023-11-21T09:17:28;97858.34;;;9.26;92.54
63535;BME280;55128;50.230;18.944;2023-11-21T09:22:28;97854.28;;;9.37;91.60
63535;BME280;55128;50.230;18.944;2023-11-21T09:27:30;97842.13;;;9.32;92.21
63535;BME280;55128;50.230;18.944;2023-11-21T09:32:31;97846.22;;;9.38;91.55
63535;BME280;55128;50.230;18.944;2023-11-21T09:37:31;97838.06;;;9.59;91.15
63535;BME280;55128;50.230;18.944;2023-11-21T09:42:40;97847.66;;;9.93;90.11
63535;BME280;55128;50.230;18.944;2023-11-21T09:47:43;97853.16;;;10.52;86.99
63535;BME280;55128;50.230;18.944;2023-11-21T09:52:57;97848.94;;;10.64;86.30
63535;BME280;55128;50.230;18.944;2023-11-21T09:57:57;97851.88;;;10.43;86.00
63535;BME280;55128;50.230;18.944;2023-11-21T10:02:58;97846.44;;;10.15;85.49
63535;BME280;55128;50.230;18.944;2023-11-21T10:07:59;97850.56;;;10.04;86.66
63535;BME280;55128;50.230;18.944;2023-11-21T10:13:05;97840.47;;;9.95;85.52
63535;BME280;55128;50.230;18.944;2023-11-21T10:18:07;97848.69;;;9.75;86.07
63535;BME280;55128;50.230;18.944;2023-11-21T10:23:10;97859.59;;;9.52;87.18
63535;BME280;55128;50.230;18.944;2023-11-21T10:28:11;97851.84;;;9.32;88.71
63535;BME280;55128;50.230;18.944;2023-11-21T10:33:12;97847.75;;;9.26;90.03
63535;BME280;55128;50.230;18.944;2023-11-21T10:38:13;97852.28;;;9.24;89.28
63535;BME280;55128;50.230;18.944;2023-11-21T10:43:14;97851.63;;;8.86;89.99
63535;BME280;55128;50.230;18.944;2023-11-21T10:48:17;97854.84;;;8.75;89.02
63535;BME280;55128;50.230;18.944;2023-11-21T10:53:18;97848.84;;;8.71;89.54
63535;BME280;55128;50.230;18.944;2023-11-21T10:58:19;97856.38;;;8.79;88.62
63535;BME280;55128;50.230;18.944;2023-11-21T11:03:19;97859.41;;;8.89;87.74
63535;BME280;55128;50.230;18.944;2023-11-21T11:08:23;97849.97;;;9.01;86.47
63535;BME280;55128;50.230;18.944;2023-11-21T11:13:26;97853.16;;;9.07;86.28
63535;BME280;55128;50.230;18.944;2023-11-21T11:18:27;97849.97;;;9.18;86.56
63535;BME280;55128;50.230;18.944;2023-11-21T11:34:36;97856.19;;;9.66;85.76
63535;BME280;55128;50.230;18.944;2023-11-21T11:39:40;97856.53;;;9.60;84.63
63535;BME280;55128;50.230;18.944;2023-11-21T11:50:11;97859.44;;;9.71;84.14
63535;BME280;55128;50.230;18.944;2023-11-21T11:55:19;97868.50;;;9.83;82.09
63535;BME280;55128;50.230;18.944;2023-11-21T12:05:31;97866.47;;;9.88;82.89
63535;BME280;55128;50.230;18.944;2023-11-21T12:10:44;97867.56;;;9.84;82.32
63535;BME280;55128;50.230;18.944;2023-11-21T12:15:45;97867.88;;;9.62;83.27
63535;BME280;55128;50.230;18.944;2023-11-21T12:20:46;97871.66;;;9.58;83.34
63535;BME280;55128;50.230;18.944;2023-11-21T12:25:48;97862.81;;;9.42;83.85
63535;BME280;55128;50.230;18.944;2023-11-21T12:30:49;97861.13;;;9.23;85.87
63535;BME280;55128;50.230;18.944;2023-11-21T12:35:49;97863.31;;;9.32;85.94
63535;BME280;55128;50.230;18.944;2023-11-21T12:40:52;97866.28;;;9.26;86.31
63535;BME280;55128;50.230;18.944;2023-11-21T12:46:08;97870.16;;;9.37;85.58
63535;BME280;55128;50.230;18.944;2023-11-21T12:51:12;97869.97;;;9.24;85.74
63535;BME280;55128;50.230;18.944;2023-11-21T12:56:14;97875.03;;;9.11;86.34
63535;BME280;55128;50.230;18.944;2023-11-21T13:01:16;97879.19;;;8.99;85.81
63535;BME280;55128;50.230;18.944;2023-11-21T13:06:19;97888.22;;;8.78;86.92
63535;BME280;55128;50.230;18.944;2023-11-21T13:11:20;97877.69;;;8.76;89.06
63535;BME280;55128;50.230;18.944;2023-11-21T13:16:20;97894.50;;;9.10;87.83
63535;BME280;55128;50.230;18.944;2023-11-21T13:21:21;97894.25;;;8.97;89.26
63535;BME280;55128;50.230;18.944;2023-11-21T13:26:22;97898.88;;;8.93;90.53
63535;BME280;55128;50.230;18.944;2023-11-21T13:31:24;97897.09;;;8.94;90.56
63535;BME280;55128;50.230;18.944;2023-11-21T13:36:29;97890.84;;;8.78;90.17
63535;BME280;55128;50.230;18.944;2023-11-21T13:41:33;97896.31;;;8.92;89.91
63535;BME280;55128;50.230;18.944;2023-11-21T13:46:34;97901.59;;;8.74;90.59
63535;BME280;55128;50.230;18.944;2023-11-21T13:51:37;97901.69;;;8.90;90.52
63535;BME280;55128;50.230;18.944;2023-11-21T13:56:46;97898.19;;;8.90;90.48
63535;BME280;55128;50.230;18.944;2023-11-21T14:01:47;97903.88;;;8.82;91.22
63535;BME280;55128;50.230;18.944;2023-11-21T14:06:53;97900.81;;;8.72;91.30
63535;BME280;55128;50.230;18.944;2023-11-21T14:11:56;97904.47;;;8.70;91.73
63535;BME280;55128;50.230;18.944;2023-11-21T14:16:57;97908.75;;;8.72;91.64
63535;BME280;55128;50.230;18.944;2023-11-21T14:21:59;97918.31;;;8.57;91.98
63535;BME280;55128;50.230;18.944;2023-11-21T14:26:59;97912.56;;;8.67;91.97
63535;BME280;55128;50.230;18.944;2023-11-21T14:32:00;97921.91;;;8.56;92.93
63535;BME280;55128;50.230;18.944;2023-11-21T14:37:01;97919.78;;;8.46;93.62
63535;BME280;55128;50.230;18.944;2023-11-21T14:42:03;97919.06;;;8.42;93.10
63535;BME280;55128;50.230;18.944;2023-11-21T14:47:04;97920.41;;;8.32;93.91
63535;BME280;55128;50.230;18.944;2023-11-21T14:52:12;97927.19;;;8.37;93.80
63535;BME280;55128;50.230;18.944;2023-11-21T14:57:31;97931.00;;;8.32;94.35
63535;BME280;55128;50.230;18.944;2023-11-21T15:02:33;97940.34;;;8.20;94.29
63535;BME280;55128;50.230;18.944;2023-11-21T15:07:49;97931.44;;;8.42;94.84
63535;BME280;55128;50.230;18.944;2023-11-21T15:12:50;97931.59;;;8.37;95.38
63535;BME280;55128;50.230;18.944;2023-11-21T15:17:50;97935.06;;;8.39;95.45
63535;BME280;55128;50.230;18.944;2023-11-21T15:22:51;97940.50;;;8.36;95.40
63535;BME280;55128;50.230;18.944;2023-11-21T15:27:52;97942.06;;;8.40;95.68
63535;BME280;55128;50.230;18.944;2023-11-21T15:32:52;97947.63;;;8.53;95.10
63535;BME280;55128;50.230;18.944;2023-11-21T15:37:54;97951.06;;;8.36;95.51
63535;BME280;55128;50.230;18.944;2023-11-21T15:42:57;97949.63;;;8.29;96.37
63535;BME280;55128;50.230;18.944;2023-11-21T15:47:58;97960.00;;;8.33;96.76
63535;BME280;55128;50.230;18.944;2023-11-21T15:53:00;97968.03;;;8.32;96.76
63535;BME280;55128;50.230;18.944;2023-11-21T15:58:01;97961.66;;;8.36;96.82
63535;BME280;55128;50.230;18.944;2023-11-21T16:03:04;97970.22;;;8.41;96.20
63535;BME280;55128;50.230;18.944;2023-11-21T16:08:05;97976.09;;;8.29;96.23
63535;BME280;55128;50.230;18.944;2023-11-21T16:13:06;97988.94;;;8.36;96.60
63535;BME280;55128;50.230;18.944;2023-11-21T16:18:08;97999.53;;;8.36;96.52
63535;BME280;55128;50.230;18.944;2023-11-21T16:23:10;97997.09;;;8.32;96.81
63535;BME280;55128;50.230;18.944;2023-11-21T16:28:11;98005.59;;;8.38;95.86
63535;BME280;55128;50.230;18.944;2023-11-21T16:33:11;98017.97;;;8.38;96.72
63535;BME280;55128;50.230;18.944;2023-11-21T16:38:12;98015.97;;;8.24;97.36
63535;BME280;55128;50.230;18.944;2023-11-21T16:43:12;98012.25;;;8.09;98.07
63535;BME280;55128;50.230;18.944;2023-11-21T16:48:13;98024.75;;;8.25;98.20
63535;BME280;55128;50.230;18.944;2023-11-21T16:53:13;98032.41;;;8.31;97.70
63535;BME280;55128;50.230;18.944;2023-11-21T16:58:14;98038.47;;;8.14;97.43
63535;BME280;55128;50.230;18.944;2023-11-21T17:03:16;98049.97;;;7.32;100.00
63535;BME280;55128;50.230;18.944;2023-11-21T17:08:16;98057.44;;;7.00;100.00
63535;BME280;55128;50.230;18.944;2023-11-21T17:13:19;98063.19;;;6.44;100.00
63535;BME280;55128;50.230;18.944;2023-11-21T17:18:19;98072.41;;;6.09;100.00
63535;BME280;55128;50.230;18.944;2023-11-21T17:23:19;98078.97;;;5.72;100.00
63535;BME280;55128;50.230;18.944;2023-11-21T17:28:20;98092.50;;;5.61;100.00
63535;BME280;55128;50.230;18.944;2023-11-21T17:33:20;98089.91;;;5.34;100.00
63535;BME280;55128;50.230;18.944;2023-11-21T17:38:21;98094.44;;;5.29;100.00
63535;BME280;55128;50.230;18.944;2023-11-21T17:43:21;98100.97;;;5.17;99.76
63535;BME280;55128;50.230;18.944;2023-11-21T17:48:22;98107.03;;;4.93;99.79
63535;BME280;55128;50.230;18.944;2023-11-21T17:53:26;98113.84;;;4.72;100.00
63535;BME280;55128;50.230;18.944;2023-11-21T17:58:26;98123.97;;;4.54;100.00
63535;BME280;55128;50.230;18.944;2023-11-21T18:03:28;98134.09;;;4.68;100.00
63535;BME280;55128;50.230;18.944;2023-11-21T18:08:28;98136.50;;;4.76;100.00
63535;BME280;55128;50.230;18.944;2023-11-21T18:13:28;98136.91;;;4.62;99.95
63535;BME280;55128;50.230;18.944;2023-11-21T18:18:29;98144.28;;;4.49;100.00
63535;BME280;55128;50.230;18.944;2023-11-21T18:23:29;98152.06;;;4.52;99.07
63535;BME280;55128;50.230;18.944;2023-11-21T18:28:30;98161.00;;;4.46;99.17
63535;BME280;55128;50.230;18.944;2023-11-21T18:33:30;98166.97;;;4.20;98.50
63535;BME280;55128;50.230;18.944;2023-11-21T18:38:30;98162.72;;;4.16;98.54
63535;BME280;55128;50.230;18.944;2023-11-21T18:43:31;98181.47;;;3.69;99.41
63535;BME280;55128;50.230;18.944;2023-11-21T18:48:31;98185.84;;;3.69;98.64
63535;BME280;55128;50.230;18.944;2023-11-21T18:53:32;98196.78;;;3.52;98.35
63535;BME280;55128;50.230;18.944;2023-11-21T18:58:35;98206.63;;;3.44;98.29
63535;BME280;55128;50.230;18.944;2023-11-21T19:03:36;98210.75;;;3.15;99.08
63535;BME280;55128;50.230;18.944;2023-11-21T19:08:36;98206.50;;;3.11;98.78
63535;BME280;55128;50.230;18.944;2023-11-21T19:13:37;98219.72;;;3.06;98.79
63535;BME280;55128;50.230;18.944;2023-11-21T19:18:37;98224.59;;;2.83;98.96
63535;BME280;55128;50.230;18.944;2023-11-21T19:23:38;98244.41;;;2.95;99.31
63535;BME280;55128;50.230;18.944;2023-11-21T19:28:38;98249.34;;;2.68;98.41
63535;BME280;55128;50.230;18.944;2023-11-21T19:33:39;98263.34;;;2.68;99.63
63535;BME280;55128;50.230;18.944;2023-11-21T19:38:39;98271.41;;;2.58;99.54
63535;BME280;55128;50.230;18.944;2023-11-21T19:43:41;98277.19;;;2.73;99.50
63535;BME280;55128;50.230;18.944;2023-11-21T19:48:44;98290.00;;;2.44;98.90
63535;BME280;55128;50.230;18.944;2023-11-21T19:53:46;98298.13;;;2.30;98.75
63535;BME280;55128;50.230;18.944;2023-11-21T19:58:47;98305.13;;;2.28;99.90
63535;BME280;55128;50.230;18.944;2023-11-21T20:03:49;98313.81;;;2.31;100.00
63535;BME280;55128;50.230;18.944;2023-11-21T20:08:51;98329.19;;;2.50;99.55
63535;BME280;55128;50.230;18.944;2023-11-21T20:13:52;98339.34;;;2.19;98.61
63535;BME280;55128;50.230;18.944;2023-11-21T20:18:52;98347.47;;;2.02;97.91
63535;BME280;55128;50.230;18.944;2023-11-21T20:23:53;98349.13;;;2.07;98.96
63535;BME280;55128;50.230;18.944;2023-11-21T20:28:53;98352.59;;;2.09;98.52
63535;BME280;55128;50.230;18.944;2023-11-21T20:33:56;98359.34;;;2.23;98.52
63535;BME280;55128;50.230;18.944;2023-11-21T20:38:59;98372.94;;;1.90;98.35
63535;BME280;55128;50.230;18.944;2023-11-21T20:44:03;98373.63;;;2.05;98.35
63535;BME280;55128;50.230;18.944;2023-11-21T20:49:05;98390.44;;;1.88;97.62
63535;BME280;55128;50.230;18.944;2023-11-21T20:54:06;98392.28;;;1.80;97.59
63535;BME280;55128;50.230;18.944;2023-11-21T20:59:07;98406.88;;;1.97;97.51
63535;BME280;55128;50.230;18.944;2023-11-21T21:04:07;98410.31;;;2.00;97.18
63535;BME280;55128;50.230;18.944;2023-11-21T21:09:08;98413.31;;;1.72;96.97
63535;BME280;55128;50.230;18.944;2023-11-21T21:14:12;98427.09;;;1.87;96.41
63535;BME280;55128;50.230;18.944;2023-11-21T21:19:12;98443.06;;;1.67;96.85
63535;BME280;55128;50.230;18.944;2023-11-21T21:24:23;98458.06;;;1.54;97.22
63535;BME280;55128;50.230;18.944;2023-11-21T21:29:23;98458.28;;;1.34;97.24
63535;BME280;55128;50.230;18.944;2023-11-21T21:34:26;98467.16;;;1.21;98.49
63535;BME280;55128;50.230;18.944;2023-11-21T21:39:26;98484.75;;;1.05;98.96
63535;BME280;55128;50.230;18.944;2023-11-21T21:44:27;98495.94;;;1.17;98.48
63535;BME280;55128;50.230;18.944;2023-11-21T21:49:27;98504.78;;;1.04;97.06
63535;BME280;55128;50.230;18.944;2023-11-21T21:54:27;98509.31;;;0.85;97.25
63535;BME280;55128;50.230;18.944;2023-11-21T21:59:28;98517.16;;;0.84;97.53
63535;BME280;55128;50.230;18.944;2023-11-21T22:04:29;98510.16;;;0.90;97.73
63535;BME280;55128;50.230;18.944;2023-11-21T22:09:34;98523.22;;;0.89;98.33
63535;BME280;55128;50.230;18.944;2023-11-21T22:14:36;98525.03;;;0.81;97.77
63535;BME280;55128;50.230;18.944;2023-11-21T22:19:37;98523.19;;;0.93;97.78
63535;BME280;55128;50.230;18.944;2023-11-21T22:24:37;98536.22;;;0.98;97.85
63535;BME280;55128;50.230;18.944;2023-11-21T22:29:38;98535.53;;;0.77;97.00
63535;BME280;55128;50.230;18.944;2023-11-21T22:34:39;98549.28;;;1.00;97.22
63535;BME280;55128;50.230;18.944;2023-11-21T22:39:41;98547.00;;;0.53;97.31
63535;BME280;55128;50.230;18.944;2023-11-21T22:44:41;98558.31;;;0.52;98.40
63535;BME280;55128;50.230;18.944;2023-11-21T22:49:42;98562.69;;;0.52;98.60
63535;BME280;55128;50.230;18.944;2023-11-21T22:54:42;98576.59;;;0.54;98.54
63535;BME280;55128;50.230;18.944;2023-11-21T22:59:43;98583.59;;;0.49;98.23
63535;BME280;55128;50.230;18.944;2023-11-21T23:04:44;98581.03;;;0.46;98.85
63535;BME280;55128;50.230;18.944;2023-11-21T23:09:44;98581.03;;;0.43;98.51
63535;BME280;55128;50.230;18.944;2023-11-21T23:14:46;98588.91;;;0.40;97.52
63535;BME280;55128;50.230;18.944;2023-11-21T23:19:46;98598.50;;;0.36;97.61
63535;BME280;55128;50.230;18.944;2023-11-21T23:24:47;98599.41;;;0.24;97.37
63535;BME280;55128;50.230;18.944;2023-11-21T23:29:48;98613.25;;;0.35;97.91
63535;BME280;55128;50.230;18.944;2023-11-21T23:34:53;98613.28;;;0.32;97.62
63535;BME280;55128;50.230;18.944;2023-11-21T23:39:54;98632.38;;;0.44;97.50
63535;BME280;55128;50.230;18.944;2023-11-21T23:44:54;98635.81;;;0.56;97.62
63535;BME280;55128;50.230;18.944;2023-11-21T23:49:55;98641.13;;;0.33;96.44
63535;BME280;55128;50.230;18.944;2023-11-21T23:54:56;98641.13;;;0.33;96.28
63535;BME280;55128;50.230;18.944;2023-11-21T23:59:56;98644.66;;;0.23;96.35
